Time;durP1;ratioP1;P1;durP2;ratioP2;P2;SDS_P1;SDS_P2;PMS_P1;PMS_P2;Temp;Humidity;BMP_temperature;BMP_pressure;BME280_temperature;BME280_humidity;BME280_pressure;Samples;Min_cycle;Max_cycle;Signal;HPM_P1;HPM_P2
2022/05/20 00:02:20;;;;;;;3.22;0.43;;;14.70;99.90;;;;;;5040068;28;20108;-69
2022/05/20 00:04:48;;;;;;;1.63;0.32;;;14.90;99.90;;;;;;5039754;28;20057;-70
2022/05/20 00:07:15;;;;;;;1.33;0.50;;;15.10;99.90;;;;;;5035169;28;20025;-73
2022/05/20 00:09:43;;;;;;;1.73;0.60;;;15.50;99.90;;;;;;5035035;28;20028;-69
2022/05/20 00:12:11;;;;;;;1.02;0.47;;;15.90;99.90;;;;;;5038930;28;20408;-70
2022/05/20 00:14:38;;;;;;;1.98;0.55;;;16.50;99.90;;;;;;5037626;28;20447;-69
2022/05/20 00:17:05;;;;;;;0.70;0.30;;;16.80;99.90;;;;;;5040304;28;20025;-70
2022/05/20 00:19:34;;;;;;;3.60;0.40;;;17.00;99.90;;;;;;5022494;28;20353;-72
2022/05/20 00:22:02;;;;;;;1.42;0.30;;;17.10;99.90;;;;;;5045788;28;20021;-70
2022/05/20 00:24:30;;;;;;;3.33;0.40;;;17.00;99.90;;;;;;5035391;28;20037;-70
2022/05/20 00:26:57;;;;;;;1.33;0.40;;;16.90;99.90;;;;;;5041708;28;20033;-72
2022/05/20 00:29:25;;;;;;;2.03;0.50;;;16.80;99.90;;;;;;5046335;28;20033;-71
2022/05/20 00:31:53;;;;;;;0.95;0.25;;;16.70;99.90;;;;;;5049584;28;20051;-70
2022/05/20 00:34:20;;;;;;;2.30;0.47;;;16.70;99.90;;;;;;5045934;28;20095;-69
2022/05/20 00:36:47;;;;;;;1.50;0.73;;;16.70;99.90;;;;;;5032173;28;20036;-68
2022/05/20 00:39:15;;;;;;;2.10;0.40;;;16.60;99.90;;;;;;5027553;28;20469;-69
2022/05/20 00:41:43;;;;;;;1.20;0.30;;;16.60;99.90;;;;;;5049156;28;20029;-69
2022/05/20 00:44:10;;;;;;;1.95;0.30;;;16.60;99.90;;;;;;5042616;28;20029;-69
2022/05/20 00:46:38;;;;;;;3.33;0.55;;;16.50;99.90;;;;;;5029152;28;20468;-69
2022/05/20 00:49:13;;;;;;;0.93;0.30;;;16.50;99.90;;;;;;5049322;28;20048;-70
2022/05/20 00:51:49;;;;;;;3.55;0.40;;;16.60;99.90;;;;;;5036076;28;20036;-69
2022/05/20 00:54:23;;;;;;;2.22;0.35;;;16.60;99.90;;;;;;5038056;28;20090;-69
2022/05/20 00:57:00;;;;;;;2.30;0.65;;;16.70;99.90;;;;;;5041145;28;20028;-69
2022/05/20 00:59:34;;;;;;;2.30;0.30;;;16.80;99.90;;;;;;5041204;28;20032;-70
2022/05/20 01:02:09;;;;;;;1.20;0.40;;;16.80;99.90;;;;;;5035748;28;20029;-71
2022/05/20 01:04:37;;;;;;;0.47;0.20;;;16.90;99.90;;;;;;5040444;28;20057;-70
2022/05/20 01:07:06;;;;;;;2.08;0.60;;;17.00;99.90;;;;;;5032441;28;20032;-71
2022/05/20 01:09:36;;;;;;;4.00;1.08;;;17.10;99.90;;;;;;5027019;28;20053;-71
2022/05/20 01:12:04;;;;;;;2.25;0.50;;;17.10;99.90;;;;;;5034985;28;20064;-71
2022/05/20 01:14:31;;;;;;;1.85;0.30;;;17.20;99.90;;;;;;5027201;28;20440;-70
2022/05/20 01:16:59;;;;;;;1.88;0.47;;;17.20;99.90;;;;;;5034283;28;20888;-69
2022/05/20 01:19:29;;;;;;;3.15;1.10;;;17.20;99.90;;;;;;5028050;28;20022;-71
2022/05/20 01:21:57;;;;;;;3.88;0.52;;;17.10;99.90;;;;;;5031682;28;20132;-69
2022/05/20 01:24:24;;;;;;;1.13;0.40;;;17.10;99.90;;;;;;5031904;28;20476;-70
2022/05/20 01:26:52;;;;;;;1.88;0.60;;;17.10;99.90;;;;;;5025386;28;20103;-70
2022/05/20 01:29:20;;;;;;;1.60;0.30;;;17.00;99.90;;;;;;5032209;28;20034;-71
2022/05/20 01:31:47;;;;;;;0.57;0.20;;;17.10;99.90;;;;;;5031023;28;20494;-71
2022/05/20 01:34:15;;;;;;;4.07;0.65;;;17.10;99.90;;;;;;5026098;28;20487;-72
2022/05/20 01:36:42;;;;;;;2.08;0.30;;;17.20;99.90;;;;;;5040450;28;20510;-70
2022/05/20 01:39:09;;;;;;;1.88;0.25;;;17.20;99.90;;;;;;5043117;28;20116;-69
2022/05/20 01:41:45;;;;;;;6.03;0.60;;;17.20;99.90;;;;;;5041874;28;20076;-71
2022/05/20 01:44:18;;;;;;;;;;;17.30;99.90;;;;;;5041626;28;20477;-72
2022/05/20 01:46:46;;;;;;;2.95;0.45;;;17.20;99.90;;;;;;5030296;28;20043;-71
2022/05/20 01:49:30;;;;;;;0.63;0.20;;;17.20;99.90;;;;;;5032884;28;20492;-71
2022/05/20 01:52:05;;;;;;;1.48;0.22;;;17.20;99.90;;;;;;5045104;28;20040;-70
2022/05/20 01:54:52;;;;;;;1.83;0.38;;;17.30;99.90;;;;;;5041968;28;20025;-70
2022/05/20 01:57:41;;;;;;;2.50;0.60;;;17.30;99.90;;;;;;5035247;28;20047;-70
2022/05/20 02:00:22;;;;;;;1.83;0.43;;;17.30;99.90;;;;;;5040035;28;20519;-70
2022/05/20 02:03:01;;;;;;;1.00;0.20;;;17.20;99.90;;;;;;5036428;28;20091;-70
2022/05/20 02:05:50;;;;;;;1.90;0.20;;;17.20;99.90;;;;;;5037875;28;21615;-71
2022/05/20 02:08:32;;;;;;;0.95;0.20;;;17.10;99.90;;;;;;5045183;28;20115;-70
2022/05/20 02:11:16;;;;;;;1.52;0.20;;;17.00;99.90;;;;;;5036370;28;20531;-70
2022/05/20 02:13:52;;;;;;;3.38;0.40;;;17.00;99.90;;;;;;5035390;28;20033;-71
2022/05/20 02:16:26;;;;;;;5.68;0.45;;;17.00;99.90;;;;;;5040292;28;20030;-70
2022/05/20 02:19:13;;;;;;;1.50;0.35;;;17.00;99.90;;;;;;5047783;28;20479;-71
2022/05/20 02:21:45;;;;;;;0.90;0.40;;;16.90;99.90;;;;;;5035212;28;20036;-71
2022/05/20 02:24:18;;;;;;;1.17;0.85;;;16.90;99.90;;;;;;5035874;28;20039;-71
2022/05/20 02:26:55;;;;;;;1.25;0.30;;;16.90;99.90;;;;;;5032794;28;20033;-70
2022/05/20 02:29:30;;;;;;;1.70;0.32;;;16.90;99.90;;;;;;5048227;28;20052;-71
2022/05/20 02:32:19;;;;;;;2.58;0.30;;;16.90;99.90;;;;;;5032695;28;20073;-71
2022/05/20 02:34:46;;;;;;;0.70;0.20;;;16.80;99.90;;;;;;5047466;28;20032;-71
2022/05/20 02:37:25;;;;;;;2.60;0.57;;;16.80;99.90;;;;;;5052892;28;20471;-71
2022/05/20 02:39:54;;;;;;;3.58;0.35;;;16.80;99.90;;;;;;5047706;28;20119;-72
2022/05/20 02:42:22;;;;;;;3.70;0.30;;;16.80;99.90;;;;;;5038783;28;20090;-70
2022/05/20 02:44:50;;;;;;;4.30;0.75;;;16.70;99.90;;;;;;5042664;28;20059;-70
2022/05/20 02:47:17;;;;;;;0.57;0.35;;;16.70;99.90;;;;;;5034419;28;20480;-70
2022/05/20 02:49:45;;;;;;;3.22;0.30;;;16.70;99.90;;;;;;5034632;28;20048;-72
2022/05/20 02:52:12;;;;;;;3.42;0.38;;;16.70;99.90;;;;;;5041343;28;20149;-73
2022/05/20 02:54:40;;;;;;;0.85;0.35;;;16.80;99.90;;;;;;5033143;28;20025;-74
2022/05/20 02:57:07;;;;;;;1.80;0.40;;;16.80;99.90;;;;;;5039342;28;20494;-72
2022/05/20 03:05:06;;;;;;;1.33;0.30;;;16.90;99.90;;;;;;5041477;28;20502;-72
2022/05/20 03:07:33;;;;;;;3.55;0.30;;;16.90;99.90;;;;;;5053361;28;20409;-72
2022/05/20 03:10:01;;;;;;;0.73;0.57;;;16.90;99.90;;;;;;5050920;28;20116;-72
2022/05/20 03:12:28;;;;;;;1.65;0.20;;;16.80;99.90;;;;;;5035547;28;20030;-73
2022/05/20 03:14:55;;;;;;;1.23;0.20;;;16.90;99.90;;;;;;5040100;28;20468;-73
2022/05/20 03:17:23;;;;;;;2.00;0.20;;;16.90;99.90;;;;;;5053174;28;20045;-72
2022/05/20 03:19:50;;;;;;;1.05;0.38;;;16.90;99.90;;;;;;5039546;28;20564;-72
2022/05/20 03:22:17;;;;;;;3.38;0.93;;;17.00;99.90;;;;;;5036238;28;20033;-72
2022/05/20 03:24:45;;;;;;;5.45;1.17;;;17.00;99.90;;;;;;5037890;28;20024;-73
2022/05/20 03:27:12;;;;;;;0.30;0.20;;;17.00;99.90;;;;;;5033097;28;20399;-73
2022/05/20 03:29:39;;;;;;;1.80;0.38;;;16.90;99.90;;;;;;5038093;28;20022;-73
2022/05/20 03:32:07;;;;;;;3.85;0.80;;;16.90;99.90;;;;;;5033300;28;20043;-73
2022/05/20 03:34:35;;;;;;;1.25;0.30;;;16.90;99.90;;;;;;5036462;28;20025;-72
2022/05/20 03:37:02;;;;;;;2.55;0.65;;;16.90;99.90;;;;;;5032968;28;20022;-73
2022/05/20 03:39:29;;;;;;;2.08;0.38;;;17.00;99.90;;;;;;5036065;28;20464;-73
2022/05/20 03:41:57;;;;;;;1.85;0.47;;;17.00;99.90;;;;;;5035387;28;20108;-73
2022/05/20 03:44:25;;;;;;;2.88;0.30;;;17.10;99.90;;;;;;5044904;28;20024;-73
2022/05/20 03:46:54;;;;;;;5.15;0.55;;;17.10;99.90;;;;;;5031388;28;20045;-73
2022/05/20 03:49:26;;;;;;;2.67;0.35;;;17.20;99.90;;;;;;5039081;28;20037;-73
2022/05/20 03:51:55;;;;;;;1.55;0.35;;;17.20;99.90;;;;;;5043230;28;20483;-72
2022/05/20 03:54:25;;;;;;;1.90;0.40;;;17.20;99.90;;;;;;5035009;28;20028;-73
2022/05/20 03:56:52;;;;;;;4.38;0.47;;;17.30;99.90;;;;;;5037717;28;20037;-73
2022/05/20 03:59:20;;;;;;;1.85;1.05;;;17.30;99.90;;;;;;5035540;28;20029;-73
2022/05/20 04:01:59;;;;;;;2.75;0.30;;;17.30;99.90;;;;;;5047116;28;20392;-72
2022/05/20 04:04:33;;;;;;;3.95;0.43;;;17.30;99.90;;;;;;5036207;28;20029;-73
2022/05/20 04:07:04;;;;;;;1.38;0.40;;;17.30;99.90;;;;;;5041472;28;20033;-73
2022/05/20 04:09:31;;;;;;;1.17;0.47;;;17.40;99.90;;;;;;5040753;28;20110;-72
2022/05/20 04:12:08;;;;;;;2.33;1.15;;;17.30;99.90;;;;;;5043463;28;20040;-73
2022/05/20 04:14:35;;;;;;;3.70;0.60;;;17.40;99.90;;;;;;5078653;28;20108;-73
2022/05/20 04:17:04;;;;;;;2.17;0.63;;;17.40;99.90;;;;;;5051094;28;20163;-73
2022/05/20 04:19:34;;;;;;;2.38;0.52;;;17.30;99.90;;;;;;5035198;28;20075;-73
2022/05/20 04:22:06;;;;;;;3.25;1.70;;;17.40;99.90;;;;;;5039194;28;20029;-73
2022/05/20 04:24:35;;;;;;;4.03;0.40;;;17.40;99.90;;;;;;5037771;28;20056;-73
2022/05/20 04:27:03;;;;;;;3.90;0.40;;;17.40;99.90;;;;;;5046036;28;20025;-74
2022/05/20 04:29:30;;;;;;;4.20;0.50;;;17.30;99.90;;;;;;5045216;28;20413;-76
2022/05/20 04:31:57;;;;;;;3.33;1.05;;;17.30;99.90;;;;;;5036953;28;20044;-72
2022/05/20 04:34:25;;;;;;;1.98;0.40;;;17.10;99.90;;;;;;5038414;28;20055;-74
2022/05/20 04:36:53;;;;;;;1.77;0.40;;;17.10;99.90;;;;;;5044808;28;20577;-74
2022/05/20 04:39:20;;;;;;;2.70;0.85;;;17.00;99.90;;;;;;5037177;28;20468;-73
2022/05/20 04:47:26;;;;;;;2.38;0.50;;;17.10;99.90;;;;;;5042561;28;20403;-72
2022/05/20 04:49:54;;;;;;;3.60;0.63;;;17.20;99.90;;;;;;5038812;28;20048;-72
2022/05/20 04:52:22;;;;;;;2.05;0.47;;;17.10;99.90;;;;;;5042876;28;20437;-73
2022/05/20 04:54:49;;;;;;;2.92;0.60;;;17.20;99.90;;;;;;5032817;28;20021;-73
2022/05/20 04:57:32;;;;;;;1.80;0.30;;;17.10;99.90;;;;;;5039887;28;20399;-73
2022/05/20 05:00:06;;;;;;;3.55;0.50;;;17.10;99.90;;;;;;5032294;28;20017;-74
2022/05/20 05:02:34;;;;;;;2.13;0.40;;;17.20;99.90;;;;;;5038796;28;20021;-73
2022/05/20 05:05:02;;;;;;;1.17;0.30;;;17.10;99.90;;;;;;5037488;28;20368;-73
2022/05/20 05:07:29;;;;;;;4.10;0.57;;;17.10;99.90;;;;;;5041186;28;20098;-73
2022/05/20 05:09:58;;;;;;;2.08;0.40;;;17.10;99.90;;;;;;5039876;28;20491;-76
2022/05/20 05:12:26;;;;;;;3.30;0.30;;;17.00;99.90;;;;;;5040368;28;20045;-75
2022/05/20 05:14:54;;;;;;;1.02;0.38;;;17.00;99.90;;;;;;5033274;28;20434;-74
2022/05/20 05:20:14;;;;;;;2.17;0.50;;;17.00;99.90;;;;;;5045678;28;20121;-73
2022/05/20 05:22:42;;;;;;;2.20;0.30;;;17.00;99.90;;;;;;5047222;28;20499;-73
2022/05/20 05:25:11;;;;;;;5.20;0.88;;;16.90;99.90;;;;;;5040813;28;20470;-73
2022/05/20 05:27:39;;;;;;;1.38;0.68;;;16.90;99.90;;;;;;5049517;28;20017;-73
2022/05/20 05:30:08;;;;;;;1.63;0.40;;;16.90;99.90;;;;;;5039791;28;20029;-71
2022/05/20 05:32:36;;;;;;;4.80;0.70;;;16.80;99.90;;;;;;5039822;28;20037;-73
2022/05/20 05:35:07;;;;;;;1.23;0.40;;;16.80;99.90;;;;;;5035519;28;20103;-73
2022/05/20 05:37:35;;;;;;;1.42;0.55;;;16.70;99.90;;;;;;5045619;28;20065;-76
2022/05/20 05:40:03;;;;;;;2.50;0.30;;;16.70;99.90;;;;;;5039064;28;20033;-74
2022/05/20 05:42:30;;;;;;;2.65;0.47;;;16.70;99.90;;;;;;5031478;28;20037;-73
2022/05/20 05:44:59;;;;;;;4.10;1.10;;;16.60;99.90;;;;;;5032612;28;20021;-75
2022/05/20 05:47:26;;;;;;;3.50;0.45;;;16.60;99.90;;;;;;5031905;28;20021;-72
2022/05/20 05:49:54;;;;;;;5.22;0.55;;;16.60;99.90;;;;;;5046606;28;20029;-73
2022/05/20 05:52:21;;;;;;;6.78;0.40;;;16.50;99.90;;;;;;5046350;28;20116;-74
2022/05/20 05:54:48;;;;;;;5.13;0.57;;;16.50;99.90;;;;;;5051688;28;20024;-76
2022/05/20 05:57:16;;;;;;;0.85;0.30;;;16.50;99.90;;;;;;5042896;28;20033;-73
2022/05/20 05:59:43;;;;;;;3.38;0.70;;;16.40;99.90;;;;;;5041947;28;20112;-73
2022/05/20 06:02:11;;;;;;;4.38;0.63;;;16.40;99.90;;;;;;5041642;28;20025;-74
2022/05/20 06:04:38;;;;;;;3.42;0.80;;;16.40;99.90;;;;;;5050534;28;20116;-75
2022/05/20 06:07:09;;;;;;;0.75;0.40;;;16.30;99.90;;;;;;5040497;28;20017;-74
2022/05/20 06:09:37;;;;;;;1.90;0.50;;;16.30;99.90;;;;;;5036256;28;20415;-73
2022/05/20 06:12:05;;;;;;;2.45;0.60;;;16.30;99.90;;;;;;5034753;28;20030;-74
2022/05/20 06:14:32;;;;;;;3.80;0.70;;;16.20;99.90;;;;;;5044249;28;20021;-72
2022/05/20 06:16:59;;;;;;;5.45;0.95;;;16.20;99.90;;;;;;5035742;28;21006;-75
2022/05/20 06:19:27;;;;;;;4.97;1.15;;;16.20;99.90;;;;;;5045920;28;20079;-74
2022/05/20 06:21:54;;;;;;;5.95;0.65;;;16.20;99.90;;;;;;5033458;28;20068;-74
2022/05/20 06:24:21;;;;;;;2.80;0.65;;;16.20;99.90;;;;;;5043617;28;20448;-74
2022/05/20 06:26:49;;;;;;;2.60;0.93;;;16.20;99.90;;;;;;5035347;28;20029;-72
2022/05/20 06:29:17;;;;;;;3.67;0.70;;;16.20;99.90;;;;;;5040141;28;20450;-72
2022/05/20 06:31:44;;;;;;;4.93;0.73;;;16.10;99.90;;;;;;5043326;28;20373;-73
2022/05/20 06:34:12;;;;;;;2.05;0.77;;;16.00;99.90;;;;;;5036514;28;20026;-73
2022/05/20 06:42:09;;;;;;;3.60;0.77;;;16.00;99.90;;;;;;5041291;28;20048;-71
2022/05/20 06:44:37;;;;;;;2.05;0.60;;;16.00;99.90;;;;;;5040175;28;20025;-73
2022/05/20 06:47:05;;;;;;;3.95;0.75;;;16.00;99.90;;;;;;5052649;28;20025;-72
2022/05/20 06:49:33;;;;;;;3.70;1.00;;;15.90;99.90;;;;;;5040852;28;20048;-73
2022/05/20 06:52:00;;;;;;;3.65;0.68;;;15.90;99.90;;;;;;5050195;28;20386;-72
2022/05/20 06:54:29;;;;;;;4.30;0.40;;;15.80;99.90;;;;;;5042164;28;20025;-72
2022/05/20 06:56:56;;;;;;;5.90;0.90;;;15.70;99.90;;;;;;5036677;28;20361;-72
2022/05/20 06:59:24;;;;;;;2.05;1.00;;;15.70;99.90;;;;;;5043165;28;20021;-74
2022/05/20 07:01:52;;;;;;;2.00;0.60;;;15.60;99.90;;;;;;5040604;28;20025;-75
2022/05/20 07:04:20;;;;;;;4.03;0.63;;;15.50;99.90;;;;;;5036438;28;20088;-75
2022/05/20 07:06:47;;;;;;;2.60;1.55;;;15.40;99.90;;;;;;5040209;28;20033;-74
2022/05/20 07:09:15;;;;;;;4.78;2.13;;;15.40;99.90;;;;;;5041342;28;20147;-77
2022/05/20 07:11:42;;;;;;;3.63;1.50;;;15.20;99.90;;;;;;5038052;28;20451;-74
2022/05/20 07:14:10;;;;;;;3.58;1.65;;;15.20;99.90;;;;;;5049340;28;20036;-74
2022/05/20 07:16:37;;;;;;;3.05;1.23;;;15.20;99.90;;;;;;5036989;28;20677;-75
2022/05/20 07:19:05;;;;;;;2.10;1.17;;;15.20;99.90;;;;;;5031960;28;20033;-75
2022/05/20 07:21:33;;;;;;;2.55;0.88;;;15.10;99.90;;;;;;5044990;28;20116;-75
2022/05/20 07:24:01;;;;;;;4.82;1.88;;;15.10;99.90;;;;;;5043315;28;20052;-75
2022/05/20 07:26:29;;;;;;;3.20;1.08;;;15.10;99.90;;;;;;5044384;28;20581;-75
2022/05/20 07:28:57;;;;;;;2.03;1.02;;;15.10;99.90;;;;;;5045176;28;20119;-74
2022/05/20 07:31:24;;;;;;;5.65;2.40;;;15.10;99.90;;;;;;5049602;28;20033;-73
2022/05/20 07:33:52;;;;;;;4.57;1.15;;;15.10;99.90;;;;;;5040257;28;20571;-74
2022/05/20 07:36:21;;;;;;;3.72;2.63;;;15.20;99.90;;;;;;5044470;28;20417;-73
2022/05/20 07:38:48;;;;;;;7.25;3.17;;;15.10;99.90;;;;;;5050595;28;20076;-73
2022/05/20 07:41:15;;;;;;;3.75;2.28;;;15.10;99.90;;;;;;5033242;28;20025;-74
2022/05/20 07:43:43;;;;;;;3.15;1.48;;;15.10;99.90;;;;;;5038091;28;20104;-74
2022/05/20 07:46:10;;;;;;;5.43;1.40;;;15.10;99.90;;;;;;5049473;28;20057;-76
2022/05/20 07:48:38;;;;;;;2.60;1.48;;;15.10;99.90;;;;;;5040208;28;20056;-76
2022/05/20 07:51:16;;;;;;;6.72;2.38;;;15.10;99.90;;;;;;5038546;28;20057;-75
2022/05/20 07:53:56;;;;;;;5.05;2.08;;;15.00;99.90;;;;;;5032805;28;20025;-74
2022/05/20 07:56:49;;;;;;;5.53;2.65;;;15.00;99.90;;;;;;5032293;28;20392;-75
2022/05/20 07:59:27;;;;;;;6.38;2.15;;;14.90;99.90;;;;;;5034024;28;20041;-78
2022/05/20 08:01:55;;;;;;;5.35;2.95;;;14.90;99.90;;;;;;5027053;28;20387;-76
2022/05/20 08:07:20;;;;;;;11.68;2.78;;;14.90;99.90;;;;;;5028058;28;20734;-76
2022/05/20 08:09:48;;;;;;;6.65;2.97;;;14.90;99.90;;;;;;5037836;28;20048;-77
2022/05/20 08:12:15;;;;;;;10.98;4.88;;;15.00;99.90;;;;;;5041248;28;20037;-75
2022/05/20 08:14:43;;;;;;;8.13;2.83;;;15.00;99.90;;;;;;5030225;28;20064;-74
2022/05/20 08:17:10;;;;;;;9.95;4.43;;;15.10;99.90;;;;;;5034531;28;20252;-74
2022/05/20 08:19:39;;;;;;;6.70;4.22;;;15.10;99.90;;;;;;5030281;28;20484;-74
2022/05/20 08:22:06;;;;;;;5.75;2.97;;;15.10;99.90;;;;;;5040153;28;20079;-76
2022/05/20 08:24:34;;;;;;;9.10;2.15;;;15.00;99.90;;;;;;5034985;28;20025;-75
2022/05/20 08:27:01;;;;;;;4.32;2.25;;;14.90;99.90;;;;;;5037466;28;20395;-75
2022/05/20 08:29:31;;;;;;;3.30;2.15;;;14.80;99.90;;;;;;5033901;28;20076;-74
2022/05/20 08:31:59;;;;;;;4.93;1.58;;;14.70;99.90;;;;;;5037922;28;20072;-75
2022/05/20 08:34:26;;;;;;;3.50;1.10;;;14.70;99.90;;;;;;5038676;28;20033;-74
2022/05/20 08:36:53;;;;;;;3.63;0.80;;;14.60;99.90;;;;;;5037109;28;20037;-73
2022/05/20 08:39:22;;;;;;;2.35;1.23;;;14.50;99.90;;;;;;5030995;28;20032;-74
2022/05/20 08:41:53;;;;;;;3.40;1.60;;;14.50;99.90;;;;;;5033026;28;20522;-74
2022/05/20 08:44:24;;;;;;;4.53;1.52;;;14.50;99.90;;;;;;5042936;28;20064;-74
2022/05/20 08:47:06;;;;;;;6.10;2.45;;;14.50;99.90;;;;;;5035303;28;20048;-74
2022/05/20 08:49:37;;;;;;;5.03;2.17;;;14.50;99.90;;;;;;5046409;28;20515;-75
2022/05/20 08:52:04;;;;;;;6.40;1.98;;;14.50;99.90;;;;;;5041780;28;20036;-75
2022/05/20 08:54:32;;;;;;;3.65;1.38;;;14.50;99.90;;;;;;5045932;28;20467;-75
2022/05/20 08:57:23;;;;;;;3.92;1.77;;;14.50;99.90;;;;;;5049220;28;20079;-75
2022/05/20 08:59:51;;;;;;;2.47;1.45;;;14.50;99.90;;;;;;5046351;28;20062;-77
2022/05/20 09:02:20;;;;;;;6.13;1.63;;;14.50;99.90;;;;;;5032802;28;20025;-74
2022/05/20 09:04:48;;;;;;;2.60;1.90;;;14.40;99.90;;;;;;5041382;28;20055;-74
2022/05/20 09:07:18;;;;;;;3.92;1.40;;;14.40;99.90;;;;;;5034737;28;20488;-76
2022/05/20 09:09:53;;;;;;;2.85;1.38;;;14.40;99.90;;;;;;5047718;28;20251;-74
2022/05/20 09:12:39;;;;;;;6.45;2.25;;;14.40;99.90;;;;;;5031277;28;20073;-74
2022/05/20 09:18:12;;;;;;;4.32;1.85;;;14.30;99.90;;;;;;5035464;28;20490;-75
2022/05/20 09:20:48;;;;;;;2.58;1.45;;;14.30;99.90;;;;;;5042267;28;20563;-77
2022/05/20 09:23:20;;;;;;;4.50;2.17;;;14.30;99.90;;;;;;5034820;28;20037;-75
2022/05/20 09:26:21;;;;;;;5.63;1.73;;;14.30;99.90;;;;;;5028401;28;20037;-74
2022/05/20 09:29:04;;;;;;;6.10;2.30;;;14.20;99.90;;;;;;5025022;28;20037;-76
2022/05/20 09:31:38;;;;;;;5.60;2.35;;;14.20;99.90;;;;;;5028475;28;20033;-75
2022/05/20 09:34:28;;;;;;;3.15;1.70;;;14.20;99.90;;;;;;5031433;28;20043;-76
2022/05/20 09:36:58;;;;;;;4.95;1.98;;;14.10;99.90;;;;;;5029511;28;20451;-75
2022/05/20 09:39:29;;;;;;;4.28;1.50;;;14.10;99.90;;;;;;5031217;28;20032;-75
2022/05/20 09:41:58;;;;;;;9.27;2.28;;;14.00;99.90;;;;;;5030374;28;20032;-75
2022/05/20 09:44:37;;;;;;;4.18;1.70;;;14.00;99.90;;;;;;5028821;28;20420;-76
2022/05/20 09:47:32;;;;;;;12.07;3.20;;;13.90;99.90;;;;;;5030184;28;20085;-74
2022/05/20 09:50:02;;;;;;;8.63;2.88;;;13.90;99.90;;;;;;5030975;28;20047;-76
2022/05/20 09:52:41;;;;;;;5.80;3.08;;;13.90;99.90;;;;;;5030034;28;20395;-77
2022/05/20 09:55:23;;;;;;;4.65;1.48;;;13.90;99.90;;;;;;5032014;28;20025;-77
2022/05/20 09:57:54;;;;;;;4.78;1.70;;;13.90;99.90;;;;;;5032899;28;20057;-76
2022/05/20 10:00:32;;;;;;;4.03;1.60;;;13.80;99.90;;;;;;5028305;28;20056;-75
2022/05/20 10:03:07;;;;;;;4.20;2.00;;;13.80;99.90;;;;;;5038926;28;20462;-76
2022/05/20 10:05:45;;;;;;;8.77;1.65;;;13.80;99.90;;;;;;5039071;28;20395;-78
2022/05/20 10:08:27;;;;;;;5.82;1.30;;;13.80;99.90;;;;;;5029336;28;20029;-76
2022/05/20 10:11:33;;;;;;;3.75;1.15;;;13.80;99.90;;;;;;5028599;28;20473;-76
2022/05/20 10:14:26;;;;;;;4.15;1.52;;;13.80;99.90;;;;;;5029685;28;20029;-76
2022/05/20 10:17:16;;;;;;;6.07;1.20;;;13.80;99.90;;;;;;5029157;28;20931;-77
2022/05/20 10:19:50;;;;;;;3.72;0.95;;;13.80;99.90;;;;;;4990169;28;20033;-75
2022/05/20 10:22:39;;;;;;;2.97;0.82;;;13.80;99.90;;;;;;5032323;28;20551;-77
2022/05/20 10:25:30;;;;;;;3.55;1.63;;;13.80;99.90;;;;;;5029988;28;20072;-77
2022/05/20 10:34:14;;;;;;;3.85;1.23;;;13.70;99.90;;;;;;5028921;28;20593;-76
2022/05/20 10:36:51;;;;;;;3.00;1.15;;;13.70;99.90;;;;;;5028977;28;20063;-75
2022/05/20 10:39:21;;;;;;;4.53;1.17;;;13.70;99.90;;;;;;5033316;28;20762;-75
2022/05/20 10:42:25;;;;;;;3.13;1.10;;;13.60;99.90;;;;;;5033232;28;20025;-77
2022/05/20 10:48:44;;;;;;;1.27;0.80;;;13.50;99.90;;;;;;5032983;28;20052;-77
2022/05/20 10:51:12;;;;;;;2.60;0.90;;;13.50;99.90;;;;;;5026963;28;20040;-75
2022/05/20 10:54:06;;;;;;;5.95;1.08;;;13.40;99.90;;;;;;5033519;28;20098;-75
2022/05/20 10:57:06;;;;;;;2.90;0.80;;;13.40;99.90;;;;;;5034353;28;20772;-76
2022/05/20 10:59:48;;;;;;;3.33;0.93;;;13.30;99.90;;;;;;5032377;28;20107;-75
2022/05/20 11:02:40;;;;;;;2.08;0.57;;;13.30;99.90;;;;;;5033986;28;20419;-74
2022/05/20 11:05:13;;;;;;;4.95;0.73;;;13.20;99.90;;;;;;5033529;28;20048;-74
2022/05/20 11:08:38;;;;;;;3.58;1.20;;;13.20;99.90;;;;;;5032422;28;20104;-76
2022/05/20 11:11:34;;;;;;;4.90;1.00;;;13.20;99.90;;;;;;4995464;28;20489;-75
2022/05/20 11:14:47;;;;;;;1.90;1.38;;;13.20;99.90;;;;;;5031901;28;21031;-74
2022/05/20 11:17:19;;;;;;;2.85;1.17;;;13.20;99.90;;;;;;5017484;28;20029;-75
2022/05/20 11:20:00;;;;;;;4.25;1.80;;;13.10;99.90;;;;;;5017721;28;20819;-74
2022/05/20 11:23:08;;;;;;;3.33;1.02;;;13.20;99.90;;;;;;5026511;28;20487;-75
2022/05/20 11:25:52;;;;;;;6.57;0.98;;;13.20;99.90;;;;;;5015920;28;21257;-74
2022/05/20 11:28:28;;;;;;;6.80;0.82;;;13.30;99.90;;;;;;5031998;28;20029;-74
2022/05/20 11:31:14;;;;;;;1.60;0.80;;;13.30;99.90;;;;;;5030791;28;20041;-74
2022/05/20 11:34:04;;;;;;;2.70;0.98;;;13.30;99.90;;;;;;5031932;28;20049;-75
2022/05/20 11:36:41;;;;;;;5.30;1.27;;;13.30;99.90;;;;;;5033290;28;20136;-74
2022/05/20 11:39:35;;;;;;;6.78;1.30;;;13.40;99.90;;;;;;5031849;28;20083;-74
2022/05/20 11:42:24;;;;;;;1.33;0.93;;;13.40;99.90;;;;;;5040185;28;20059;-75
2022/05/20 11:45:36;;;;;;;1.83;0.90;;;13.40;99.90;;;;;;5033616;28;20037;-75
2022/05/20 11:48:13;;;;;;;5.22;1.02;;;13.40;99.90;;;;;;5045821;28;20076;-76
2022/05/20 11:50:49;;;;;;;4.07;1.30;;;13.50;99.90;;;;;;5044960;28;20040;-74
2022/05/20 11:53:30;;;;;;;2.28;1.02;;;13.40;99.90;;;;;;5033381;28;20025;-74
2022/05/20 11:56:25;;;;;;;4.43;1.42;;;13.40;99.90;;;;;;5038214;28;20037;-74
2022/05/20 11:59:18;;;;;;;1.63;1.13;;;13.40;99.90;;;;;;5045146;28;20047;-74
2022/05/20 12:01:49;;;;;;;5.65;1.20;;;13.40;99.90;;;;;;5036811;28;20051;-74
2022/05/20 12:04:19;;;;;;;1.52;1.00;;;13.40;99.90;;;;;;5039105;28;20564;-74
2022/05/20 12:07:10;;;;;;;5.10;1.10;;;13.40;99.90;;;;;;5043663;28;20127;-74
2022/05/20 12:09:44;;;;;;;1.90;1.08;;;13.40;99.90;;;;;;5031042;28;20067;-74
2022/05/20 12:12:30;;;;;;;4.15;0.80;;;13.40;99.90;;;;;;5033679;28;20771;-74
2022/05/20 12:15:08;;;;;;;2.90;1.20;;;13.40;99.90;;;;;;5029642;28;20083;-74
2022/05/20 12:17:48;;;;;;;2.22;1.20;;;13.50;99.90;;;;;;5034408;28;20106;-74
2022/05/20 12:25:58;;;;;;;4.25;1.13;;;13.50;99.90;;;;;;5031153;28;20068;-74
2022/05/20 12:28:25;;;;;;;2.08;1.10;;;13.50;99.90;;;;;;5035186;28;20045;-74
2022/05/20 12:31:13;;;;;;;1.35;1.05;;;13.50;99.90;;;;;;5043148;28;20032;-75
2022/05/20 12:34:05;;;;;;;5.80;1.30;;;13.50;99.90;;;;;;5045415;28;20044;-77
2022/05/20 12:36:33;;;;;;;2.95;1.50;;;13.50;99.90;;;;;;5034610;28;20036;-76
2022/05/20 12:39:10;;;;;;;4.18;1.67;;;13.40;99.90;;;;;;5031988;28;20044;-76
2022/05/20 12:42:01;;;;;;;5.90;1.70;;;13.50;99.90;;;;;;5031058;28;20037;-75
2022/05/20 12:44:35;;;;;;;1.92;0.80;;;13.40;99.90;;;;;;5030562;28;20033;-77
2022/05/20 12:47:06;;;;;;;3.25;1.63;;;13.40;99.90;;;;;;5035756;28;20025;-76
2022/05/20 12:49:33;;;;;;;1.90;1.13;;;13.40;99.90;;;;;;5036273;28;20033;-77
2022/05/20 12:52:17;;;;;;;6.35;1.42;;;13.40;99.90;;;;;;5030772;28;20040;-75
2022/05/20 12:54:52;;;;;;;6.47;1.35;;;13.40;99.90;;;;;;5046674;28;20025;-76
2022/05/20 12:57:22;;;;;;;5.70;2.50;;;13.40;99.90;;;;;;5037989;28;20065;-76
2022/05/20 12:59:51;;;;;;;1.77;1.00;;;13.40;99.90;;;;;;5037015;28;20029;-75
2022/05/20 13:02:21;;;;;;;2.42;0.65;;;13.40;99.90;;;;;;5037604;28;20106;-75
2022/05/20 13:05:24;;;;;;;1.90;0.75;;;13.40;99.90;;;;;;5036962;28;20040;-77
2022/05/20 13:07:53;;;;;;;2.83;0.70;;;13.30;99.90;;;;;;5028793;28;20396;-74
2022/05/20 13:10:36;;;;;;;3.47;0.60;;;13.30;99.90;;;;;;5041442;28;20029;-75
2022/05/20 13:13:19;;;;;;;1.60;0.63;;;13.20;99.90;;;;;;5048769;28;20052;-74
2022/05/20 13:16:00;;;;;;;4.35;0.93;;;13.20;99.90;;;;;;5036329;28;20021;-74
2022/05/20 13:18:30;;;;;;;1.40;0.63;;;13.20;99.90;;;;;;5049148;28;20135;-75
2022/05/20 13:21:32;;;;;;;2.28;0.77;;;13.10;99.90;;;;;;5043816;28;20025;-75
2022/05/20 13:23:59;;;;;;;2.20;0.63;;;13.10;99.90;;;;;;5020768;28;20144;-74
2022/05/20 13:26:29;;;;;;;4.38;0.95;;;13.10;99.90;;;;;;5030508;28;20129;-76
2022/05/20 13:29:10;;;;;;;4.47;0.73;;;13.10;99.90;;;;;;5029583;28;20021;-76
2022/05/20 13:31:37;;;;;;;2.70;0.52;;;13.20;99.90;;;;;;5039061;28;20030;-78
2022/05/20 13:34:05;;;;;;;4.63;0.50;;;13.20;99.90;;;;;;5039087;28;20039;-78
2022/05/20 13:36:44;;;;;;;4.43;0.80;;;13.20;99.90;;;;;;5030694;28;20105;-74
2022/05/20 13:39:18;;;;;;;1.85;0.60;;;13.20;99.90;;;;;;5032237;28;20083;-77
2022/05/20 13:41:46;;;;;;;2.03;0.63;;;13.20;99.90;;;;;;5045216;28;20021;-76
2022/05/20 13:44:14;;;;;;;3.47;0.98;;;13.10;99.90;;;;;;5041264;28;20075;-76
2022/05/20 13:49:37;;;;;;;2.13;0.80;;;13.10;99.90;;;;;;5045706;28;20059;-75
2022/05/20 13:52:06;;;;;;;2.10;0.50;;;13.10;99.90;;;;;;5033369;28;20033;-75
2022/05/20 13:54:35;;;;;;;1.33;0.45;;;13.10;99.90;;;;;;5040998;28;20087;-75
2022/05/20 13:57:04;;;;;;;1.80;0.70;;;13.10;99.90;;;;;;5050479;28;20029;-78
2022/05/20 13:59:33;;;;;;;4.57;0.75;;;13.10;99.90;;;;;;5048128;28;20033;-76
2022/05/20 14:02:10;;;;;;;4.03;0.95;;;13.20;99.90;;;;;;5050913;28;20025;-76
2022/05/20 14:04:49;;;;;;;2.90;0.70;;;13.20;99.90;;;;;;5043099;28;20395;-76